Time;durP1;ratioP1;P1;durP2;ratioP2;P2;SDS_P1;SDS_P2;PMS_P1;PMS_P2;Temp;Humidity;BMP_temperature;BMP_pressure;BME280_temperature;BME280_humidity;BME280_pressure;Samples;Min_cycle;Max_cycle;Signal;HPM_P1;HPM_P2
2023/05/20 00:00:15;;;;;;;;;;;13.20;99.90;;;;;;4923465;29;19958;-77
2023/05/20 00:02:42;;;;;;;;;;;13.20;99.90;;;;;;4927690;29;21139;-77
2023/05/20 00:05:09;;;;;;;;;;;13.20;99.90;;;;;;4930021;29;19927;-77
2023/05/20 00:07:36;;;;;;;;;;;13.20;99.90;;;;;;4910528;29;20033;-77
2023/05/20 00:10:05;;;;;;;;;;;13.20;99.90;;;;;;4917324;29;19931;-78
2023/05/20 00:12:34;;;;;;;;;;;13.10;99.90;;;;;;4927555;29;19933;-77
2023/05/20 00:15:02;;;;;;;;;;;13.20;99.90;;;;;;4930925;29;19930;-78
2023/05/20 00:17:29;;;;;;;;;;;13.10;99.90;;;;;;4929830;29;19926;-77
2023/05/20 00:19:58;;;;;;;;;;;13.20;99.90;;;;;;4933929;29;19926;-78
2023/05/20 00:22:26;;;;;;;;;;;13.10;99.90;;;;;;4923392;29;19942;-78
2023/05/20 00:24:53;;;;;;;;;;;13.10;99.90;;;;;;4923035;29;20021;-77
2023/05/20 00:27:19;;;;;;;;;;;13.10;99.90;;;;;;4929634;29;20441;-77
2023/05/20 00:29:48;;;;;;;;;;;13.10;99.90;;;;;;4929828;29;20291;-77
2023/05/20 00:32:16;;;;;;;;;;;13.10;99.90;;;;;;4925281;29;20301;-77
2023/05/20 00:34:43;;;;;;;;;;;13.10;99.90;;;;;;4933705;29;20394;-78
2023/05/20 00:37:14;;;;;;;;;;;13.10;99.90;;;;;;4913484;29;19931;-77
2023/05/20 00:39:41;;;;;;;;;;;13.10;99.90;;;;;;4926747;29;20010;-77
2023/05/20 00:42:08;;;;;;;;;;;13.10;99.90;;;;;;4930738;29;19970;-77
2023/05/20 00:44:35;;;;;;;;;;;13.10;99.90;;;;;;4928483;29;20366;-77
2023/05/20 00:47:02;;;;;;;;;;;13.10;99.90;;;;;;4927837;29;19935;-78
2023/05/20 00:49:30;;;;;;;;;;;13.10;99.90;;;;;;4915066;29;19930;-77
2023/05/20 00:51:59;;;;;;;;;;;13.10;99.90;;;;;;4929204;29;19926;-77
2023/05/20 00:54:27;;;;;;;;;;;13.10;99.90;;;;;;4929817;29;19931;-77
2023/05/20 00:56:54;;;;;;;;;;;13.10;99.90;;;;;;4924799;29;19934;-77
2023/05/20 00:59:21;;;;;;;;;;;13.00;99.90;;;;;;4924367;29;19937;-77
2023/05/20 01:01:48;;;;;;;;;;;13.10;99.90;;;;;;4923819;29;19990;-76
2023/05/20 01:04:15;;;;;;;;;;;13.10;99.90;;;;;;4923808;29;19927;-78
2023/05/20 01:06:49;;;;;;;;;;;13.10;99.90;;;;;;4929668;29;20745;-77
2023/05/20 01:09:16;;;;;;;;;;;13.00;99.90;;;;;;4927027;29;19933;-77
2023/05/20 01:11:47;;;;;;;;;;;13.00;99.90;;;;;;4913519;29;20021;-77
2023/05/20 01:14:17;;;;;;;;;;;13.10;99.90;;;;;;4923448;29;20046;-77
2023/05/20 01:16:46;;;;;;;;;;;13.00;99.90;;;;;;4929588;29;19934;-77
2023/05/20 01:19:20;;;;;;;;;;;13.00;99.90;;;;;;4922195;29;19934;-77
2023/05/20 01:21:49;;;;;;;;;;;13.00;99.90;;;;;;4930823;29;19931;-77
2023/05/20 01:24:25;;;;;;;;;;;13.00;99.90;;;;;;4933477;29;19934;-77
2023/05/20 01:26:56;;;;;;;;;;;13.00;99.90;;;;;;4922053;29;19926;-77
2023/05/20 01:29:28;;;;;;;;;;;13.00;99.90;;;;;;4929605;29;19934;-77
2023/05/20 01:32:02;;;;;;;;;;;13.00;99.90;;;;;;4923397;29;20413;-77
2023/05/20 01:34:31;;;;;;;;;;;13.00;99.90;;;;;;4925996;29;20405;-77
2023/05/20 01:36:58;;;;;;;;;;;13.00;99.90;;;;;;4916444;29;19934;-77
2023/05/20 01:39:28;;;;;;;;;;;13.00;99.90;;;;;;4933063;29;19934;-76
2023/05/20 01:41:56;;;;;;;;;;;13.00;99.90;;;;;;4925072;29;19926;-77
2023/05/20 01:44:23;;;;;;;;;;;13.00;99.90;;;;;;4908167;29;19935;-77
2023/05/20 01:46:50;;;;;;;;;;;13.00;99.90;;;;;;4926860;29;19927;-77
2023/05/20 01:49:17;;;;;;;;;;;12.90;99.90;;;;;;4925718;29;19930;-77
2023/05/20 01:51:44;;;;;;;;;;;13.00;99.90;;;;;;4926049;28;20314;-77
2023/05/20 01:54:11;;;;;;;;;;;13.00;99.90;;;;;;4931536;28;20033;-76
2023/05/20 01:56:40;;;;;;;;;;;13.00;99.90;;;;;;4911179;29;19935;-76
2023/05/20 01:59:06;;;;;;;;;;;13.00;99.90;;;;;;4916520;29;19933;-77
2023/05/20 02:01:34;;;;;;;;;;;12.90;99.90;;;;;;4907084;29;19933;-77
2023/05/20 02:04:01;;;;;;;;;;;12.90;99.90;;;;;;4913761;29;19970;-77
2023/05/20 02:06:28;;;;;;;;;;;12.90;99.90;;;;;;4907123;29;19939;-77
2023/05/20 02:08:55;;;;;;;;;;;12.90;99.90;;;;;;4920793;29;19930;-77
2023/05/20 02:11:23;;;;;;;;;;;12.90;99.90;;;;;;4923761;29;19927;-77
2023/05/20 02:13:52;;;;;;;;;;;12.90;99.90;;;;;;4925019;29;19935;-77
2023/05/20 02:16:20;;;;;;;;;;;12.90;99.90;;;;;;4907230;29;20021;-77
2023/05/20 02:18:52;;;;;;;;;;;12.90;99.90;;;;;;4911438;29;20024;-77
2023/05/20 02:21:19;;;;;;;;;;;12.90;99.90;;;;;;4922095;29;20366;-77
2023/05/20 02:23:45;;;;;;;;;;;12.90;99.90;;;;;;4928620;29;19937;-77
2023/05/20 02:26:12;;;;;;;;;;;12.90;99.90;;;;;;4921666;29;20017;-77
2023/05/20 02:28:45;;;;;;;;;;;12.90;99.90;;;;;;4928099;29;19994;-77
2023/05/20 02:31:13;;;;;;;;;;;12.90;99.90;;;;;;4923107;29;19986;-77
2023/05/20 02:33:40;;;;;;;;;;;12.90;99.90;;;;;;4927433;29;19938;-77
2023/05/20 02:36:08;;;;;;;;;;;12.90;99.90;;;;;;4929072;29;19926;-77
2023/05/20 02:38:35;;;;;;;;;;;12.90;99.90;;;;;;4923372;29;19927;-77
2023/05/20 02:41:03;;;;;;;;;;;12.90;99.90;;;;;;4913890;29;19942;-77
2023/05/20 02:43:31;;;;;;;;;;;12.90;99.90;;;;;;4918072;29;19927;-77
2023/05/20 02:46:01;;;;;;;;;;;12.90;99.90;;;;;;4927851;29;19931;-77
2023/05/20 02:48:29;;;;;;;;;;;12.90;99.90;;;;;;4921730;29;19927;-77
2023/05/20 02:50:56;;;;;;;;;;;12.90;99.90;;;;;;4911753;29;19938;-77
2023/05/20 02:53:23;;;;;;;;;;;12.90;99.90;;;;;;4915064;29;20756;-77
2023/05/20 02:55:50;;;;;;;;;;;12.80;99.90;;;;;;4927063;29;20452;-77
2023/05/20 02:58:17;;;;;;;;;;;12.90;99.90;;;;;;4918316;29;19931;-76
2023/05/20 03:00:45;;;;;;;;;;;12.80;99.90;;;;;;4913172;29;19927;-77
2023/05/20 03:03:12;;;;;;;;;;;12.90;99.90;;;;;;4924939;29;19966;-77
2023/05/20 03:05:44;;;;;;;;;;;12.80;99.90;;;;;;4927868;29;19935;-77
2023/05/20 03:08:12;;;;;;;;;;;12.80;99.90;;;;;;4927377;29;19927;-77
2023/05/20 03:10:39;;;;;;;;;;;12.80;99.90;;;;;;4927956;29;19934;-77
2023/05/20 03:13:10;;;;;;;;;;;12.80;99.90;;;;;;4920620;29;19966;-77
2023/05/20 03:15:38;;;;;;;;;;;12.80;99.90;;;;;;4910685;29;19927;-77
2023/05/20 03:18:07;;;;;;;;;;;12.80;99.90;;;;;;4931406;29;19935;-77
2023/05/20 03:20:35;;;;;;;;;;;12.80;99.90;;;;;;4912709;29;20317;-77
2023/05/20 03:23:04;;;;;;;;;;;12.80;99.90;;;;;;4923957;29;19938;-77
2023/05/20 03:25:31;;;;;;;;;;;12.80;99.90;;;;;;4910488;29;19931;-76
2023/05/20 03:27:58;;;;;;;;;;;12.80;99.90;;;;;;4926024;29;19926;-77
2023/05/20 03:30:25;;;;;;;;;;;12.80;99.90;;;;;;4925977;29;20030;-78
2023/05/20 03:32:53;;;;;;;;;;;12.80;99.90;;;;;;4931448;28;19927;-77
2023/05/20 03:35:21;;;;;;;;;;;12.80;99.90;;;;;;4926048;29;19935;-77
2023/05/20 03:37:50;;;;;;;;;;;12.80;99.90;;;;;;4931950;28;20748;-77
2023/05/20 03:40:22;;;;;;;;;;;12.80;99.90;;;;;;4925855;29;19926;-77
2023/05/20 03:42:50;;;;;;;;;;;12.80;99.90;;;;;;4914235;29;19986;-77
2023/05/20 03:45:19;;;;;;;;;;;12.80;99.90;;;;;;4930369;29;19935;-77
2023/05/20 03:48:02;;;;;;;;;;;12.80;99.90;;;;;;4916156;29;19927;-77
2023/05/20 03:50:31;;;;;;;;;;;12.80;99.90;;;;;;4924642;29;19931;-77
2023/05/20 03:52:58;;;;;;;;;;;12.80;99.90;;;;;;4913967;29;19935;-76
2023/05/20 03:55:27;;;;;;;;;;;12.80;99.90;;;;;;4926864;29;19930;-77
2023/05/20 03:57:55;;;;;;;;;;;12.80;99.90;;;;;;4922957;29;20021;-76
2023/05/20 04:00:23;;;;;;;;;;;12.80;99.90;;;;;;4911262;29;19927;-76
2023/05/20 04:02:50;;;;;;;;;;;12.80;99.90;;;;;;4925829;29;21154;-77
2023/05/20 04:05:19;;;;;;;;;;;12.80;99.90;;;;;;4922251;29;20350;-77
2023/05/20 04:07:47;;;;;;;;;;;12.70;99.90;;;;;;4908879;29;19934;-76
2023/05/20 04:10:14;;;;;;;;;;;12.70;99.90;;;;;;4928147;29;20013;-77
2023/05/20 04:12:42;;;;;;;;;;;12.70;99.90;;;;;;4924581;28;20292;-75
2023/05/20 04:15:10;;;;;;;;;;;12.80;99.90;;;;;;4923948;29;19927;-76
2023/05/20 04:17:49;;;;;;;;;;;12.80;99.90;;;;;;4934222;29;20013;-77
2023/05/20 04:20:17;;;;;;;;;;;12.70;99.90;;;;;;4930243;29;20318;-77
2023/05/20 04:22:44;;;;;;;;;;;12.70;99.90;;;;;;4908601;29;19931;-77
2023/05/20 04:25:14;;;;;;;;;;;12.80;99.90;;;;;;4914228;29;19927;-77
2023/05/20 04:27:44;;;;;;;;;;;12.70;99.90;;;;;;4927814;29;19935;-77
2023/05/20 04:30:12;;;;;;;;;;;12.80;99.90;;;;;;4929850;29;19999;-77
2023/05/20 04:32:41;;;;;;;;;;;12.70;99.90;;;;;;4913025;29;19950;-77
2023/05/20 04:35:10;;;;;;;;;;;12.70;99.90;;;;;;4918051;29;19927;-77
2023/05/20 04:37:39;;;;;;;;;;;12.80;99.90;;;;;;4909868;29;19941;-77
2023/05/20 04:40:08;;;;;;;;;;;12.70;99.90;;;;;;4918310;29;19966;-77
2023/05/20 04:42:39;;;;;;;;;;;12.70;99.90;;;;;;4927062;29;19927;-77
2023/05/20 04:45:08;;;;;;;;;;;12.70;99.90;;;;;;4928914;29;19983;-77
2023/05/20 04:47:37;;;;;;;;;;;12.70;99.90;;;;;;4931226;29;19945;-77
2023/05/20 04:50:07;;;;;;;;;;;12.70;99.90;;;;;;4908482;29;19931;-77
2023/05/20 04:52:34;;;;;;;;;;;12.70;99.90;;;;;;4926551;28;19942;-76
2023/05/20 04:55:01;;;;;;;;;;;12.70;99.90;;;;;;4927454;29;19938;-77
2023/05/20 04:57:29;;;;;;;;;;;12.70;99.90;;;;;;4909228;29;19926;-77
2023/05/20 04:59:57;;;;;;;;;;;12.70;99.90;;;;;;4914585;29;20391;-76
2023/05/20 05:02:26;;;;;;;;;;;12.70;99.90;;;;;;4918039;29;20025;-77
2023/05/20 05:04:54;;;;;;;;;;;12.70;99.90;;;;;;4913875;29;19941;-77
2023/05/20 05:07:21;;;;;;;;;;;12.70;99.90;;;;;;4927460;29;19935;-77
2023/05/20 05:09:48;;;;;;;;;;;12.70;99.90;;;;;;4916004;29;20014;-77
2023/05/20 05:12:17;;;;;;;;;;;12.70;99.90;;;;;;4912919;29;19934;-77
2023/05/20 05:14:45;;;;;;;;;;;12.70;99.90;;;;;;4934137;29;20330;-77
2023/05/20 05:17:12;;;;;;;;;;;12.70;99.90;;;;;;4929366;29;19942;-77
2023/05/20 05:19:40;;;;;;;;;;;12.60;99.90;;;;;;4909764;29;20014;-77
2023/05/20 05:22:08;;;;;;;;;;;12.70;99.90;;;;;;4930045;29;19938;-77
2023/05/20 05:24:36;;;;;;;;;;;12.70;99.90;;;;;;4915646;29;19941;-77
2023/05/20 05:27:03;;;;;;;;;;;12.70;99.90;;;;;;4912202;29;20254;-77
2023/05/20 05:29:31;;;;;;;;;;;12.70;99.90;;;;;;4928498;29;19934;-77
2023/05/20 05:31:58;;;;;;;;;;;12.70;99.90;;;;;;4930690;29;19935;-77
2023/05/20 05:34:28;;;;;;;;;;;12.70;99.90;;;;;;4912476;29;19930;-77
2023/05/20 05:37:01;;;;;;;;;;;12.70;99.90;;;;;;4921942;29;19939;-77
2023/05/20 05:39:31;;;;;;;;;;;12.60;99.90;;;;;;4927347;29;19957;-77
2023/05/20 05:41:58;;;;;;;;;;;12.60;99.90;;;;;;4926796;28;19941;-77
2023/05/20 05:44:27;;;;;;;;;;;12.60;99.90;;;;;;4922842;29;19935;-77
2023/05/20 05:46:54;;;;;;;;;;;12.60;99.90;;;;;;4916219;29;20516;-77
2023/05/20 05:49:21;;;;;;;;;;;12.60;99.90;;;;;;4928988;29;20579;-77
2023/05/20 05:51:48;;;;;;;;;;;12.60;99.90;;;;;;4910490;29;20409;-77
2023/05/20 05:54:16;;;;;;;;;;;12.70;99.90;;;;;;4924889;29;19938;-77
2023/05/20 05:56:43;;;;;;;;;;;12.60;99.90;;;;;;4910358;29;19927;-77
2023/05/20 05:59:13;;;;;;;;;;;12.60;99.90;;;;;;4927082;29;19935;-77
2023/05/20 06:01:40;;;;;;;;;;;12.60;99.90;;;;;;4928328;29;19937;-77
2023/05/20 06:04:07;;;;;;;;;;;12.60;99.90;;;;;;4925210;29;20409;-77
2023/05/20 06:06:35;;;;;;;;;;;12.60;99.90;;;;;;4910574;29;19935;-78
2023/05/20 06:09:01;;;;;;;;;;;12.60;99.90;;;;;;4907818;29;20053;-75
2023/05/20 06:11:30;;;;;;;;;;;12.60;99.90;;;;;;4909037;29;20460;-78
2023/05/20 06:13:57;;;;;;;;;;;12.60;99.90;;;;;;4910482;29;20009;-77
2023/05/20 06:16:24;;;;;;;;;;;12.60;99.90;;;;;;4926941;29;19927;-78
2023/05/20 06:18:52;;;;;;;;;;;12.60;99.90;;;;;;4920883;29;19926;-79
2023/05/20 06:21:18;;;;;;;;;;;12.60;99.90;;;;;;4921551;29;19935;-78
2023/05/20 06:23:45;;;;;;;;;;;12.60;99.90;;;;;;4907147;29;19935;-78
2023/05/20 06:26:13;;;;;;;;;;;12.60;99.90;;;;;;4916889;29;19970;-78
2023/05/20 06:28:42;;;;;;;;;;;12.60;99.90;;;;;;4897491;29;19935;-78
2023/05/20 06:31:08;;;;;;;;;;;12.60;99.90;;;;;;4922913;29;20409;-78
2023/05/20 06:33:36;;;;;;;;;;;12.60;99.90;;;;;;4922333;29;19945;-78
2023/05/20 06:36:07;;;;;;;;;;;12.60;99.90;;;;;;4904560;29;20411;-77
2023/05/20 06:38:34;;;;;;;;;;;12.60;99.90;;;;;;4908443;29;19994;-78
2023/05/20 06:41:01;;;;;;;;;;;12.60;99.90;;;;;;4903031;29;19927;-78
2023/05/20 06:43:29;;;;;;;;;;;12.60;99.90;;;;;;4912740;29;19954;-78
2023/05/20 06:46:11;;;;;;;;;;;12.60;99.90;;;;;;4923100;29;19987;-78
2023/05/20 06:48:49;;;;;;;;;;;12.60;99.90;;;;;;4890865;29;19926;-78
2023/05/20 06:51:17;;;;;;;;;;;12.60;99.90;;;;;;4916928;29;20408;-78
2023/05/20 06:53:46;;;;;;;;;;;12.60;99.90;;;;;;4924721;29;20652;-78
2023/05/20 06:56:14;;;;;;;;;;;12.60;99.90;;;;;;4922213;29;19931;-79
2023/05/20 06:58:44;;;;;;;;;;;12.60;99.90;;;;;;4919039;29;19927;-78
2023/05/20 07:01:12;;;;;;;;;;;12.60;99.90;;;;;;4924140;29;19934;-78
2023/05/20 07:03:41;;;;;;;;;;;12.60;99.90;;;;;;4924970;29;20313;-78
2023/05/20 07:06:08;;;;;;;;;;;12.60;99.90;;;;;;4911823;29;20020;-78
2023/05/20 07:08:35;;;;;;;;;;;12.60;99.90;;;;;;4913838;29;20017;-78
2023/05/20 07:11:02;;;;;;;;;;;12.60;99.90;;;;;;4916677;29;19941;-79
2023/05/20 07:13:29;;;;;;;;;;;12.60;99.90;;;;;;4929435;29;19950;-78
2023/05/20 07:15:56;;;;;;;;;;;12.60;99.90;;;;;;4908455;29;19966;-78
2023/05/20 07:18:25;;;;;;;;;;;12.60;99.90;;;;;;4914680;29;19935;-79
2023/05/20 07:20:55;;;;;;;;;;;12.60;99.90;;;;;;4910526;29;19934;-79
2023/05/20 07:23:35;;;;;;;;;;;12.60;99.90;;;;;;4907906;29;19934;-79
2023/05/20 07:26:02;;;;;;;;;;;12.60;99.90;;;;;;4911135;29;19927;-79
2023/05/20 07:28:29;;;;;;;;;;;12.60;99.90;;;;;;4906525;29;19935;-78
2023/05/20 07:30:59;;;;;;;;;;;12.60;99.90;;;;;;4916373;29;20358;-79
2023/05/20 07:33:31;;;;;;;;;;;12.60;99.90;;;;;;4900702;29;19982;-79
2023/05/20 07:35:59;;;;;;;;;;;12.70;99.90;;;;;;4920435;29;20305;-77
2023/05/20 07:38:26;;;;;;;;;;;12.70;99.90;;;;;;4905306;29;19931;-77
2023/05/20 07:41:01;;;;;;;;;;;12.70;99.90;;;;;;4901267;29;19979;-77
2023/05/20 07:43:28;;;;;;;;;;;12.70;99.90;;;;;;4919088;29;20592;-78
2023/05/20 07:45:56;;;;;;;;;;;12.70;99.90;;;;;;4903287;29;20026;-78
2023/05/20 07:48:22;;;;;;;;;;;12.70;99.90;;;;;;4920206;29;20040;-77
2023/05/20 07:50:51;;;;;;;;;;;12.70;99.90;;;;;;4925532;28;19938;-77
2023/05/20 07:53:20;;;;;;;;;;;12.70;99.90;;;;;;4907633;29;20505;-78
2023/05/20 07:55:46;;;;;;;;;;;12.70;99.90;;;;;;4904763;29;19927;-77
2023/05/20 07:58:14;;;;;;;;;;;12.70;99.90;;;;;;4899226;29;19938;-77
2023/05/20 08:00:41;;;;;;;;;;;12.70;99.90;;;;;;4919285;29;19931;-77
2023/05/20 08:03:08;;;;;;;;;;;12.70;99.90;;;;;;4923100;29;19946;-77
2023/05/20 08:05:50;;;;;;;;;;;12.80;99.90;;;;;;4910274;29;19926;-77
2023/05/20 08:08:18;;;;;;;;;;;13.00;99.90;;;;;;4918050;29;19938;-77
2023/05/20 08:10:53;;;;;;;;;;;13.10;99.90;;;;;;4924581;29;19931;-77
2023/05/20 08:13:24;;;;;;;;;;;13.20;99.90;;;;;;4917478;28;20364;-79
2023/05/20 08:15:52;;;;;;;;;;;13.20;99.90;;;;;;4902818;29;21463;-78
2023/05/20 08:18:19;;;;;;;;;;;13.20;99.90;;;;;;4924683;29;19931;-78
2023/05/20 08:20:46;;;;;;;;;;;13.20;99.90;;;;;;4922734;29;20381;-77
2023/05/20 08:23:18;;;;;;;;;;;13.20;99.90;;;;;;4919145;29;19934;-78
2023/05/20 08:25:47;;;;;;;;;;;13.20;99.90;;;;;;4916173;29;19947;-78
2023/05/20 08:28:14;;;;;;;;;;;13.20;99.90;;;;;;4925009;29;20397;-78
2023/05/20 08:30:41;;;;;;;;;;;13.20;99.90;;;;;;4912572;29;19926;-78
2023/05/20 08:33:08;;;;;;;;;;;13.20;99.90;;;;;;4904691;29;20393;-77
2023/05/20 08:35:38;;;;;;;;;;;13.20;99.90;;;;;;4926013;29;21436;-77
2023/05/20 08:38:05;;;;;;;;;;;13.20;99.90;;;;;;4929549;29;19978;-78
2023/05/20 08:40:34;;;;;;;;;;;13.20;99.90;;;;;;4919952;28;19937;-77
2023/05/20 08:43:04;;;;;;;;;;;13.20;99.90;;;;;;4921271;29;19934;-79
2023/05/20 08:45:32;;;;;;;;;;;13.20;99.90;;;;;;4920593;29;19931;-77
2023/05/20 08:48:04;;;;;;;;;;;13.20;99.90;;;;;;4921656;29;19934;-81
2023/05/20 08:50:31;;;;;;;;;;;13.20;99.90;;;;;;4918436;29;20527;-76
2023/05/20 08:52:59;;;;;;;;;;;13.20;99.90;;;;;;4915984;29;20009;-77
2023/05/20 08:55:26;;;;;;;;;;;13.20;99.90;;;;;;4915739;28;20661;-77
2023/05/20 08:57:56;;;;;;;;;;;13.20;99.90;;;;;;4916311;29;19926;-76
2023/05/20 09:00:26;;;;;;;;;;;13.20;99.90;;;;;;4921994;29;20390;-76
2023/05/20 09:02:53;;;;;;;;;;;13.30;99.90;;;;;;4921251;29;19942;-78
2023/05/20 09:05:25;;;;;;;;;;;13.30;99.90;;;;;;4926178;29;20413;-78
2023/05/20 09:07:52;;;;;;;;;;;13.30;99.90;;;;;;4922639;29;19927;-78
2023/05/20 09:10:19;;;;;;;;;;;13.30;99.90;;;;;;4931014;29;19974;-78
2023/05/20 09:12:46;;;;;;;;;;;13.30;99.90;;;;;;4928250;29;19934;-78
2023/05/20 09:15:14;;;;;;;;;;;13.30;99.90;;;;;;4932574;29;19938;-77
2023/05/20 09:17:41;;;;;;;;;;;13.30;99.90;;;;;;4929450;29;19931;-77
2023/05/20 09:20:09;;;;;;;;;;;13.30;99.90;;;;;;4912588;29;19931;-77
2023/05/20 09:22:36;;;;;;;;;;;13.30;99.90;;;;;;4930503;29;19939;-78
2023/05/20 09:25:04;;;;;;;;;;;13.30;99.90;;;;;;4928936;29;20444;-78
2023/05/20 09:27:30;;;;;;;;;;;13.30;99.90;;;;;;4925763;29;19989;-77
2023/05/20 09:29:57;;;;;;;;;;;13.30;99.90;;;;;;4929315;29;20398;-78
2023/05/20 09:32:27;;;;;;;;;;;13.40;99.90;;;;;;4930326;29;20060;-78
2023/05/20 09:34:54;;;;;;;;;;;13.40;99.90;;;;;;4914852;29;20009;-77
2023/05/20 09:37:22;;;;;;;;;;;13.40;99.90;;;;;;4919175;29;20025;-77
2023/05/20 09:39:52;;;;;;;;;;;13.40;99.90;;;;;;4927227;29;19985;-77
2023/05/20 09:42:22;;;;;;;;;;;13.40;99.90;;;;;;4936362;29;19935;-77
2023/05/20 09:44:50;;;;;;;;;;;13.50;99.90;;;;;;4938305;29;19990;-77
2023/05/20 09:47:17;;;;;;;;;;;13.50;99.90;;;;;;4929456;29;19972;-78
2023/05/20 09:49:46;;;;;;;;;;;13.50;99.90;;;;;;4932591;29;19969;-77
2023/05/20 09:52:14;;;;;;;;;;;13.50;99.90;;;;;;4928014;29;19927;-78
2023/05/20 09:54:43;;;;;;;;;;;13.50;99.90;;;;;;4926584;29;19982;-77
2023/05/20 09:57:10;;;;;;;;;;;13.50;99.90;;;;;;4930165;29;19927;-77
2023/05/20 09:59:38;;;;;;;;;;;13.60;99.90;;;;;;4929622;29;20286;-77
2023/05/20 10:02:06;;;;;;;;;;;13.60;99.90;;;;;;4919998;29;19978;-78
2023/05/20 10:04:34;;;;;;;;;;;13.60;99.90;;;;;;4929569;29;19930;-78
2023/05/20 10:07:17;;;;;;;;;;;13.60;99.90;;;;;;4931196;29;19974;-77
2023/05/20 10:09:50;;;;;;;;;;;13.60;99.90;;;;;;4931725;29;20382;-78
2023/05/20 10:12:24;;;;;;;;;;;13.70;99.90;;;;;;4931860;29;19930;-77
2023/05/20 10:14:55;;;;;;;;;;;13.70;99.90;;;;;;4929959;29;20405;-77
2023/05/20 10:17:27;;;;;;;;;;;13.70;99.90;;;;;;4922511;29;19933;-77
2023/05/20 10:19:57;;;;;;;;;;;13.70;99.90;;;;;;4933278;29;19926;-77
2023/05/20 10:22:28;;;;;;;;;;;13.80;99.90;;;;;;4932983;29;19984;-77
2023/05/20 10:24:58;;;;;;;;;;;13.80;99.90;;;;;;4917589;29;19927;-77
2023/05/20 10:27:25;;;;;;;;;;;13.80;99.90;;;;;;4928903;29;20385;-77
2023/05/20 10:29:53;;;;;;;;;;;13.80;99.90;;;;;;4928039;29;19934;-77
2023/05/20 10:32:24;;;;;;;;;;;13.80;99.90;;;;;;4929244;29;19934;-77
2023/05/20 10:34:51;;;;;;;;;;;13.90;99.90;;;;;;4929962;29;19966;-77
2023/05/20 10:37:23;;;;;;;;;;;13.90;99.90;;;;;;4924057;29;19939;-77
2023/05/20 10:39:51;;;;;;;;;;;13.90;99.90;;;;;;4931303;29;20453;-77
2023/05/20 10:42:27;;;;;;;;;;;13.90;99.90;;;;;;4928002;29;21234;-77
2023/05/20 10:44:54;;;;;;;;;;;13.90;99.90;;;;;;4928430;29;19927;-77
2023/05/20 10:47:21;;;;;;;;;;;14.00;99.90;;;;;;4919552;29;19934;-77
2023/05/20 10:49:48;;;;;;;;;;;14.00;99.90;;;;;;4914966;29;19934;-77
2023/05/20 10:52:16;;;;;;;;;;;14.00;99.90;;;;;;4928404;29;20358;-77
2023/05/20 10:54:44;;;;;;;;;;;14.00;99.90;;;;;;4931276;29;19926;-77
2023/05/20 10:57:12;;;;;;;;;;;14.10;99.90;;;;;;4927322;29;19935;-77
2023/05/20 10:59:39;;;;;;;;;;;;;;;;;;4920494;29;19970;-77
2023/05/20 11:02:07;;;;;;;;;;;14.10;99.90;;;;;;4914262;29;19917;-76
2023/05/20 11:04:34;;;;;;;;;;;14.20;99.90;;;;;;4928967;29;20353;-78
2023/05/20 11:07:01;;;;;;;;;;;14.20;99.90;;;;;;4931524;29;19934;-77
2023/05/20 11:09:30;;;;;;;;;;;14.20;99.90;;;;;;4928875;29;19994;-77
2023/05/20 11:14:38;;;;;;;;;;;14.30;99.90;;;;;;4924183;29;20017;-77
2023/05/20 11:17:07;;;;;;;;;;;14.30;99.90;;;;;;4927422;29;19927;-78
2023/05/20 11:19:36;;;;;;;;;;;14.30;99.90;;;;;;4934087;29;19938;-78
2023/05/20 11:22:03;;;;;;;;;;;14.30;99.90;;;;;;4929710;29;20018;-77
2023/05/20 11:24:30;;;;;;;;;;;14.40;99.90;;;;;;4929971;29;19933;-77
2023/05/20 11:26:57;;;;;;;;;;;14.40;99.90;;;;;;4934296;29;19927;-77
2023/05/20 11:29:26;;;;;;;;;;;14.40;99.90;;;;;;4936015;29;20014;-77
2023/05/20 11:35:00;;;;;;;;;;;14.40;99.90;;;;;;4254996;26;19976;-88
2023/05/20 11:37:27;;;;;;;;;;;14.50;99.90;;;;;;4931062;29;20038;-88
2023/05/20 11:40:06;;;;;;;;;;;14.50;99.90;;;;;;4950907;29;19915;-86
2023/05/20 11:42:33;;;;;;;;;;;14.50;99.90;;;;;;4952072;29;19928;-88
2023/05/20 11:45:00;;;;;;;;;;;14.60;99.90;;;;;;4934478;29;19991;-87
2023/05/20 11:47:28;;;;;;;;;;;14.60;99.90;;;;;;4935475;29;19939;-88
2023/05/20 11:49:56;;;;;;;;;;;14.60;99.90;;;;;;4934843;29;19931;-88
2023/05/20 11:52:25;;;;;;;;;;;14.60;99.90;;;;;;4933758;29;19927;-89
2023/05/20 11:54:52;;;;;;;;;;;14.60;99.90;;;;;;4931134;29;19927;-88
2023/05/20 11:57:19;;;;;;;;;;;14.70;99.90;;;;;;4948698;29;19927;-88
2023/05/20 11:59:47;;;;;;;;;;;14.70;99.90;;;;;;4943481;29;19931;-88
2023/05/20 12:02:14;;;;;;;;;;;14.70;99.90;;;;;;4929594;29;19934;-88
2023/05/20 12:04:42;;;;;;;;;;;14.80;99.90;;;;;;4932374;29;19931;-88
2023/05/20 12:07:10;;;;;;;;;;;;;;;;;;4935409;29;20037;-90
2023/05/20 12:09:41;;;;;;;;;;;14.90;99.90;;;;;;4933242;29;19942;-88
2023/05/20 12:12:12;;;;;;;;;;;14.90;99.90;;;;;;4927923;29;19927;-88
2023/05/20 12:14:42;;;;;;;;;;;14.90;99.90;;;;;;4937802;29;20016;-88
2023/05/20 12:17:12;;;;;;;;;;;14.90;99.90;;;;;;4935561;29;20013;-87
2023/05/20 12:19:42;;;;;;;;;;;15.00;99.90;;;;;;4924674;29;19967;-88
2023/05/20 12:22:09;;;;;;;;;;;15.00;99.90;;;;;;4925187;29;20299;-87
2023/05/20 12:24:38;;;;;;;;;;;15.00;99.90;;;;;;4934474;29;19935;-89
2023/05/20 12:27:05;;;;;;;;;;;15.10;99.90;;;;;;4918427;29;20421;-88
2023/05/20 12:29:32;;;;;;;;;;;15.10;99.90;;;;;;4926735;29;19975;-88
2023/05/20 12:31:59;;;;;;;;;;;15.20;99.90;;;;;;4928235;29;19935;-87
2023/05/20 12:34:26;;;;;;;;;;;15.20;99.90;;;;;;4937180;29;19952;-88
2023/05/20 12:36:53;;;;;;;;;;;15.30;99.90;;;;;;4926101;29;19971;-88
2023/05/20 12:39:21;;;;;;;;;;;15.30;99.90;;;;;;4942169;29;19917;-88
2023/05/20 12:41:51;;;;;;;;;;;15.30;99.90;;;;;;4916977;29;19927;-88
2023/05/20 12:44:18;;;;;;;;;;;15.40;99.90;;;;;;4928933;29;20293;-89
2023/05/20 12:46:46;;;;;;;;;;;15.40;99.90;;;;;;4923291;29;19931;-89
2023/05/20 12:49:14;;;;;;;;;;;15.40;99.90;;;;;;4925099;29;19951;-87
2023/05/20 12:51:41;;;;;;;;;;;15.50;99.90;;;;;;4928583;29;20389;-89
2023/05/20 12:54:09;;;;;;;;;;;15.50;99.90;;;;;;4944092;29;19942;-88
2023/05/20 12:56:39;;;;;;;;;;;15.50;99.90;;;;;;4928157;29;19939;-88
2023/05/20 12:59:08;;;;;;;;;;;15.80;99.90;;;;;;4923491;29;20094;-79
2023/05/20 13:01:37;;;;;;;;;;;15.80;99.90;;;;;;4915012;29;20291;-92
2023/05/20 13:04:04;;;;;;;;;;;16.10;99.90;;;;;;4914046;29;19963;-89
2023/05/20 13:06:32;;;;;;;;;;;16.10;99.90;;;;;;4915812;29;19927;-90
2023/05/20 13:08:59;;;;;;;;;;;16.10;99.90;;;;;;4917626;29;20469;-89
2023/05/20 13:11:26;;;;;;;;;;;16.00;99.90;;;;;;4920823;29;19927;-89
2023/05/20 13:13:55;;;;;;;;;;;16.00;99.90;;;;;;4916863;29;20371;-89
2023/05/20 13:16:24;;;;;;;;;;;16.00;99.90;;;;;;4933049;29;19930;-90
2023/05/20 13:18:52;;;;;;;;;;;16.00;99.90;;;;;;4916654;29;19935;-90
2023/05/20 13:21:19;;;;;;;;;;;16.10;99.90;;;;;;4908502;29;19942;-88
2023/05/20 13:23:47;;;;;;;;;;;16.00;99.90;;;;;;4917473;29;19962;-91
2023/05/20 13:26:14;;;;;;;;;;;16.10;99.90;;;;;;4916599;29;19927;-90
2023/05/20 13:28:41;;;;;;;;;;;16.10;99.90;;;;;;4911398;29;19931;-91
2023/05/20 13:31:08;;;;;;;;;;;16.10;99.90;;;;;;4920179;29;19927;-90
2023/05/20 13:33:37;;;;;;;;;;;16.20;99.90;;;;;;4915131;29;19975;-90
2023/05/20 13:36:04;;;;;;;;;;;16.20;99.90;;;;;;4924631;29;19927;-90
2023/05/20 13:38:33;;;;;;;;;;;16.20;99.90;;;;;;4912858;29;19974;-90
2023/05/20 13:41:00;;;;;;;;;;;16.20;99.90;;;;;;4910433;29;19933;-90
2023/05/20 13:43:32;;;;;;;;;;;16.30;99.90;;;;;;4915917;29;19935;-90
2023/05/20 13:45:59;;;;;;;;;;;16.30;99.90;;;;;;4912419;29;19931;-90
2023/05/20 13:48:26;;;;;;;;;;;16.30;99.90;;;;;;4934389;29;20029;-90
2023/05/20 13:50:57;;;;;;;;;;;16.40;99.90;;;;;;4923187;29;19965;-90
2023/05/20 13:53:24;;;;;;;;;;;16.50;99.90;;;;;;4925692;29;19927;-90
2023/05/20 13:55:51;;;;;;;;;;;16.50;99.90;;;;;;4915127;29;19959;-90
2023/05/20 13:58:18;;;;;;;;;;;16.50;99.90;;;;;;4930385;29;20410;-90
2023/05/20 14:00:52;;;;;;;;;;;16.60;99.90;;;;;;4918603;29;20385;-89
2023/05/20 14:03:22;;;;;;;;;;;16.60;99.90;;;;;;4931458;29;20026;-90
2023/05/20 14:06:08;;;;;;;;;;;16.60;99.90;;;;;;4909967;29;19957;-90
2023/05/20 14:08:36;;;;;;;;;;;16.70;99.90;;;;;;4909524;29;20017;-90
2023/05/20 14:11:03;;;;;;;;;;;16.70;99.90;;;;;;4911278;29;19935;-90
2023/05/20 14:13:30;;;;;;;;;;;16.70;99.90;;;;;;4921499;29;19927;-90
2023/05/20 14:15:57;;;;;;;;;;;16.80;99.90;;;;;;4906505;29;19935;-90
2023/05/20 14:18:24;;;;;;;;;;;16.80;99.90;;;;;;4904293;29;20019;-90
2023/05/20 14:20:51;;;;;;;;;;;16.80;99.90;;;;;;4907364;29;19931;-89
2023/05/20 14:23:18;;;;;;;;;;;16.90;99.90;;;;;;4904628;29;19927;-90
2023/05/20 14:25:46;;;;;;;;;;;16.90;99.90;;;;;;4907626;29;20294;-90
2023/05/20 14:28:15;;;;;;;;;;;17.00;99.90;;;;;;4905852;29;19935;-89
2023/05/20 14:30:42;;;;;;;;;;;17.00;99.90;;;;;;4913375;29;19953;-90